createdAt,value
2022-10-29T00:00:55.661Z,5.45
2022-10-29T00:03:23.251Z,3.83
2022-10-29T00:06:06.210Z,4.70
2022-10-29T00:08:35.777Z,5.10
2022-10-29T00:11:08.849Z,4.88
2022-10-29T00:13:36.733Z,4.38
2022-10-29T00:16:09.753Z,3.47
2022-10-29T00:18:37.334Z,4.20
2022-10-29T00:21:06.354Z,3.95
2022-10-29T00:23:33.571Z,4.00
2022-10-29T00:26:02.013Z,4.85
2022-10-29T00:28:29.364Z,3.78
2022-10-29T00:30:56.288Z,4.15
2022-10-29T00:33:23.306Z,3.45
2022-10-29T00:35:58.605Z,3.78
2022-10-29T00:38:26.700Z,3.78
2022-10-29T00:40:55.582Z,3.53
2022-10-29T00:43:24.713Z,3.95
2022-10-29T00:45:56.972Z,3.25
2022-10-29T00:48:27.547Z,3.53
2022-10-29T00:50:56.719Z,3.20
2022-10-29T00:53:27.290Z,3.13
2022-10-29T00:55:54.343Z,3.53
2022-10-29T00:58:21.978Z,2.88
2022-10-29T01:00:48.954Z,2.83
2022-10-29T01:03:16.085Z,2.95
2022-10-29T01:05:45.509Z,2.75
2022-10-29T01:08:14.204Z,3.20
2022-10-29T01:10:41.047Z,2.83
2022-10-29T01:13:42.965Z,2.88
2022-10-29T01:16:09.946Z,3.00
2022-10-29T01:18:44.370Z,3.00
2022-10-29T01:21:29.748Z,2.60
2022-10-29T01:24:08.719Z,2.75
2022-10-29T01:27:05.340Z,2.97
2022-10-29T01:29:54.121Z,3.08
2022-10-29T01:32:20.966Z,2.60
2022-10-29T01:35:06.205Z,3.38
2022-10-29T01:37:53.487Z,3.38
2022-10-29T01:40:23.213Z,3.25
2022-10-29T01:42:58.040Z,3.65
2022-10-29T01:45:29.726Z,2.60
2022-10-29T01:48:02.357Z,3.60
2022-10-29T01:50:30.091Z,3.83
2022-10-29T01:52:57.684Z,3.35
2022-10-29T01:55:30.659Z,3.78
2022-10-29T01:57:57.846Z,4.00
2022-10-29T02:00:25.745Z,3.40
2022-10-29T02:03:08.254Z,3.20
2022-10-29T02:05:37.423Z,4.05
2022-10-29T02:08:25.816Z,3.20
2022-10-29T02:11:07.259Z,3.17
2022-10-29T02:14:03.289Z,2.97
2022-10-29T02:16:31.866Z,3.28
2022-10-29T02:19:00.113Z,3.83
2022-10-29T02:21:27.195Z,3.25
2022-10-29T02:23:54.085Z,3.78
2022-10-29T02:26:21.963Z,3.42
2022-10-29T02:28:48.927Z,4.32
2022-10-29T02:31:15.889Z,3.42
2022-10-29T02:33:42.813Z,3.58
2022-10-29T02:36:10.063Z,3.03
2022-10-29T02:38:37.172Z,3.97
2022-10-29T02:41:04.190Z,3.20
2022-10-29T02:43:31.179Z,4.38
2022-10-29T02:46:19.505Z,3.30
2022-10-29T02:48:47.369Z,3.35
2022-10-29T02:51:15.239Z,3.35
2022-10-29T02:53:42.572Z,3.15
2022-10-29T02:56:10.036Z,3.22
2022-10-29T02:58:37.671Z,2.85
2022-10-29T03:01:05.342Z,2.95
2022-10-29T03:03:32.461Z,3.47
2022-10-29T03:05:59.392Z,3.65
2022-10-29T03:08:27.202Z,2.75
2022-10-29T03:10:55.427Z,3.03
2022-10-29T03:13:22.314Z,3.45
2022-10-29T03:15:49.211Z,3.17
2022-10-29T03:18:16.185Z,3.38
2022-10-29T03:20:45.545Z,3.70
2022-10-29T03:23:13.372Z,3.17
2022-10-29T03:25:40.455Z,3.13
2022-10-29T03:28:07.500Z,2.50
2022-10-29T03:30:34.467Z,3.83
2022-10-29T03:33:01.342Z,3.88
2022-10-29T03:35:28.298Z,3.20
2022-10-29T03:37:55.229Z,3.78
2022-10-29T03:40:22.131Z,3.63
2022-10-29T03:42:48.980Z,3.30
2022-10-29T03:45:16.215Z,2.67
2022-10-29T03:47:43.218Z,3.03
2022-10-29T03:50:10.747Z,3.28
2022-10-29T03:52:37.647Z,2.63
2022-10-29T03:55:05.786Z,3.50
2022-10-29T03:57:32.946Z,3.13
2022-10-29T04:00:00.894Z,3.33
2022-10-29T04:02:28.071Z,3.00
2022-10-29T04:04:55.092Z,3.38
2022-10-29T04:07:22.043Z,3.60
2022-10-29T04:09:49.027Z,3.08
2022-10-29T04:12:15.889Z,3.80
2022-10-29T04:14:45.597Z,3.38
2022-10-29T04:17:13.457Z,3.55
2022-10-29T04:19:40.940Z,3.10
2022-10-29T04:30:28.629Z,3.40
2022-10-29T04:32:59.982Z,2.85
2022-10-29T04:35:28.421Z,2.40
2022-10-29T04:37:55.643Z,3.10
2022-10-29T04:40:24.693Z,4.10
2022-10-29T04:42:51.714Z,3.05
2022-10-29T04:45:18.867Z,3.22
2022-10-29T04:47:46.071Z,3.20
2022-10-29T04:50:13.495Z,3.17
2022-10-29T04:52:40.447Z,2.38
2022-10-29T04:55:07.694Z,2.78
2022-10-29T04:57:34.592Z,3.15
2022-10-29T05:00:01.529Z,3.13
2022-10-29T05:02:28.496Z,4.03
2022-10-29T05:04:55.345Z,3.70
2022-10-29T05:07:22.280Z,2.95
2022-10-29T05:09:49.231Z,3.47
2022-10-29T05:12:16.200Z,3.10
2022-10-29T05:14:43.156Z,3.40
2022-10-29T05:17:10.101Z,3.20
2022-10-29T05:19:37.030Z,4.10
2022-10-29T05:22:04.218Z,3.70
2022-10-29T05:24:31.299Z,3.70
2022-10-29T05:26:58.306Z,3.65
2022-10-29T05:29:25.316Z,4.28
2022-10-29T05:31:54.678Z,3.38
2022-10-29T05:34:21.730Z,3.63
2022-10-29T05:36:49.264Z,3.70
2022-10-29T05:39:16.403Z,3.25
2022-10-29T05:41:43.340Z,4.00
2022-10-29T05:44:10.229Z,3.50
2022-10-29T05:46:37.375Z,2.92
2022-10-29T05:49:04.670Z,4.25
2022-10-29T05:51:31.655Z,3.40
2022-10-29T05:53:58.662Z,3.53
2022-10-29T05:56:25.692Z,2.80
2022-10-29T05:58:52.737Z,4.25
2022-10-29T06:01:21.122Z,3.50
2022-10-29T06:03:48.136Z,3.60
2022-10-29T06:06:15.113Z,3.58
2022-10-29T06:08:42.147Z,4.00
2022-10-29T06:11:09.107Z,3.28
2022-10-29T06:13:36.188Z,3.15
2022-10-29T06:16:03.317Z,3.28
2022-10-29T06:18:30.470Z,3.38
2022-10-29T06:21:05.684Z,3.17
2022-10-29T06:23:32.978Z,3.35
2022-10-29T06:26:01.053Z,3.10
2022-10-29T06:28:33.586Z,3.35
2022-10-29T06:31:02.009Z,3.88
2022-10-29T06:33:29.023Z,3.45
2022-10-29T06:36:00.566Z,3.10
2022-10-29T06:38:27.576Z,3.40
2022-10-29T06:40:54.570Z,4.10
2022-10-29T06:43:23.654Z,3.92
2022-10-29T06:45:50.972Z,3.55
2022-10-29T06:48:26.349Z,3.83
2022-10-29T06:50:59.367Z,3.75
2022-10-29T06:53:27.943Z,3.88
2022-10-29T06:55:54.930Z,4.05
2022-10-29T06:58:21.822Z,4.30
2022-10-29T07:00:49.269Z,3.55
2022-10-29T07:03:18.712Z,4.25
2022-10-29T07:05:46.735Z,3.92
2022-10-29T07:08:13.776Z,3.72
2022-10-29T07:10:41.365Z,3.47
2022-10-29T07:13:08.295Z,3.80
2022-10-29T07:15:35.227Z,4.82
2022-10-29T07:18:04.812Z,4.10
2022-10-29T07:20:34.861Z,4.35
2022-10-29T07:23:01.897Z,4.00
2022-10-29T07:25:29.844Z,4.22
2022-10-29T07:28:06.471Z,5.35
2022-10-29T07:30:34.748Z,4.22
2022-10-29T07:33:02.194Z,5.55
2022-10-29T07:35:29.444Z,4.32
2022-10-29T07:38:09.044Z,4.85
2022-10-29T07:40:39.313Z,5.10
2022-10-29T07:43:06.644Z,4.85
2022-10-29T07:45:35.130Z,4.40
2022-10-29T07:48:04.340Z,5.20
2022-10-29T07:50:32.290Z,4.68
2022-10-29T07:53:00.840Z,5.78
2022-10-29T07:58:02.553Z,4.35
2022-10-29T08:00:33.530Z,5.25
2022-10-29T08:03:06.757Z,5.13
2022-10-29T08:05:34.014Z,4.97
2022-10-29T08:08:01.296Z,4.80
2022-10-29T08:10:30.510Z,4.88
2022-10-29T08:13:02.849Z,5.05
2022-10-29T08:15:31.846Z,3.72
2022-10-29T08:17:59.384Z,4.95
2022-10-29T08:20:28.351Z,4.20
2022-10-29T08:22:55.931Z,3.42
2022-10-29T08:25:26.511Z,3.17
2022-10-29T08:28:06.081Z,3.88
2022-10-29T08:30:36.419Z,3.67
2022-10-29T08:33:04.763Z,3.50
2022-10-29T08:35:32.932Z,4.13
2022-10-29T08:38:00.224Z,3.80
2022-10-29T08:40:29.887Z,4.30
2022-10-29T08:43:34.734Z,3.55
2022-10-29T08:46:04.327Z,4.05
2022-10-29T08:48:49.676Z,4.15
2022-10-29T08:51:39.063Z,3.50
2022-10-29T08:57:19.623Z,3.47
2022-10-29T09:02:40.605Z,4.63
2022-10-29T09:05:15.043Z,3.42
2022-10-29T09:08:25.848Z,3.55
2022-10-29T09:11:25.164Z,4.22
2022-10-29T09:14:13.068Z,2.95
2022-10-29T09:16:43.729Z,3.03
2022-10-29T09:19:32.148Z,3.33
2022-10-29T09:22:20.639Z,3.72
2022-10-29T09:25:06.593Z,4.88
2022-10-29T09:28:13.561Z,3.33
2022-10-29T09:31:11.429Z,4.50
2022-10-29T09:33:40.308Z,3.47
2022-10-29T09:36:20.900Z,4.30
2022-10-29T09:38:59.431Z,4.90
2022-10-29T09:41:32.460Z,5.15
2022-10-29T09:44:31.018Z,5.07
2022-10-29T09:47:19.382Z,5.88
2022-10-29T09:49:52.020Z,5.47
2022-10-29T09:52:21.142Z,6.18
2022-10-29T09:54:53.216Z,5.90
2022-10-29T09:57:27.143Z,6.15
2022-10-29T09:59:58.437Z,5.07
2022-10-29T10:02:42.667Z,5.63
2022-10-29T10:05:12.754Z,6.43
2022-10-29T10:07:42.934Z,5.82
2022-10-29T10:10:24.225Z,6.00
2022-10-29T10:12:51.365Z,6.72
2022-10-29T10:15:30.558Z,6.60
2022-10-29T10:18:07.340Z,5.53
2022-10-29T10:20:38.434Z,6.60
2022-10-29T10:23:27.392Z,6.32
2022-10-29T10:26:00.422Z,7.00
2022-10-29T10:28:35.751Z,6.47
2022-10-29T10:31:14.830Z,7.00
2022-10-29T10:33:51.144Z,6.72
2022-10-29T10:36:22.366Z,7.15
2022-10-29T10:38:52.798Z,7.70
2022-10-29T10:41:29.863Z,7.68
2022-10-29T10:44:04.130Z,7.15
2022-10-29T10:46:41.175Z,6.43
2022-10-29T10:49:17.246Z,7.05
2022-10-29T10:51:55.942Z,7.65
2022-10-29T10:54:42.191Z,7.10
2022-10-29T10:57:24.710Z,6.38
2022-10-29T11:00:39.645Z,7.63
2022-10-29T11:03:40.858Z,7.22
2022-10-29T11:06:30.909Z,8.40
2022-10-29T11:09:43.292Z,7.68
2022-10-29T11:12:45.518Z,8.30
2022-10-29T11:15:32.524Z,8.73
2022-10-29T11:18:19.056Z,8.65
2022-10-29T11:21:14.525Z,7.25
2022-10-29T11:23:42.925Z,8.70
2022-10-29T11:26:19.534Z,9.80
2022-10-29T11:29:00.875Z,9.00
2022-10-29T11:31:47.353Z,8.50
2022-10-29T11:34:23.897Z,7.28
2022-10-29T11:37:17.154Z,8.63
2022-10-29T11:39:55.072Z,8.50
2022-10-29T11:42:31.184Z,7.25
2022-10-29T11:45:02.464Z,9.98
2022-10-29T11:47:39.035Z,7.65
2022-10-29T11:50:52.397Z,8.98
2022-10-29T11:53:55.876Z,8.40
2022-10-29T11:56:50.101Z,9.48
2022-10-29T11:59:42.811Z,8.02
2022-10-29T12:02:16.971Z,8.77
2022-10-29T12:05:37.238Z,8.90
2022-10-29T12:08:26.448Z,8.35
2022-10-29T12:11:13.847Z,8.02
2022-10-29T12:13:56.295Z,8.25
2022-10-29T12:16:32.253Z,8.13
2022-10-29T12:19:30.185Z,7.88
2022-10-29T12:21:59.809Z,8.23
2022-10-29T12:24:42.518Z,7.63
2022-10-29T12:27:16.117Z,8.02
2022-10-29T12:32:41.333Z,6.68
2022-10-29T12:35:16.769Z,7.60
2022-10-29T12:38:13.934Z,7.13
2022-10-29T12:40:52.471Z,7.30
2022-10-29T12:43:27.129Z,7.55
2022-10-29T12:46:19.929Z,7.75
2022-10-29T12:49:12.689Z,8.00
2022-10-29T12:51:54.317Z,7.93
2022-10-29T12:54:31.126Z,7.45
2022-10-29T12:57:14.342Z,8.15
2022-10-29T13:00:19.118Z,9.17
2022-10-29T13:02:46.847Z,6.60
2022-10-29T13:05:16.382Z,7.75
2022-10-29T13:07:54.556Z,7.07
2022-10-29T13:10:26.797Z,7.22
2022-10-29T13:12:59.866Z,7.78
2022-10-29T13:15:32.941Z,6.15
2022-10-29T13:18:18.011Z,6.55
2022-10-29T13:20:51.868Z,6.50
2022-10-29T13:23:21.876Z,7.15
2022-10-29T13:25:58.446Z,7.15
2022-10-29T13:28:28.029Z,7.50
2022-10-29T13:31:06.624Z,7.10
2022-10-29T13:33:33.618Z,7.47
2022-10-29T13:36:29.776Z,7.20
2022-10-29T13:39:06.826Z,6.40
2022-10-29T13:41:50.295Z,6.40
2022-10-29T13:44:22.868Z,6.93
2022-10-29T13:46:53.149Z,5.80
2022-10-29T13:49:44.217Z,6.45
2022-10-29T13:52:22.702Z,5.88
2022-10-29T13:54:49.616Z,7.57
2022-10-29T13:57:27.625Z,6.75
2022-10-29T14:00:13.149Z,7.88
2022-10-29T14:02:43.538Z,6.50
2022-10-29T14:05:28.818Z,6.80
2022-10-29T14:08:21.954Z,6.05
2022-10-29T14:11:02.808Z,5.93
2022-10-29T14:14:05.121Z,6.05
2022-10-29T14:16:33.913Z,6.13
2022-10-29T14:19:15.177Z,5.28
2022-10-29T14:21:51.085Z,6.13
2022-10-29T14:24:19.006Z,5.47
2022-10-29T14:26:46.257Z,5.75
2022-10-29T14:29:30.816Z,5.20
2022-10-29T14:32:20.571Z,6.25
2022-10-29T14:34:51.948Z,4.65
2022-10-29T14:37:51.271Z,4.80
2022-10-29T14:40:23.349Z,5.40
2022-10-29T14:42:59.755Z,5.82
2022-10-29T14:45:30.849Z,5.88
2022-10-29T14:48:02.238Z,5.82
2022-10-29T14:50:34.898Z,5.28
2022-10-29T14:53:33.135Z,5.67
2022-10-29T14:56:18.393Z,5.90
2022-10-29T14:58:46.325Z,5.60
2022-10-29T15:01:17.104Z,5.45
2022-10-29T15:03:47.473Z,5.18
2022-10-29T15:06:30.071Z,5.65
2022-10-29T15:09:06.880Z,5.15
2022-10-29T15:11:40.093Z,5.28
2022-10-29T15:14:32.688Z,5.70
2022-10-29T15:17:00.972Z,5.15
2022-10-29T15:19:28.549Z,5.50
2022-10-29T15:21:55.504Z,5.15
2022-10-29T15:24:24.475Z,5.25
2022-10-29T15:26:59.285Z,5.07
2022-10-29T15:29:34.049Z,5.72
2022-10-29T15:32:02.643Z,5.53
2022-10-29T15:34:36.775Z,5.65
2022-10-29T15:37:19.122Z,5.00
2022-10-29T15:40:17.082Z,5.07
2022-10-29T15:42:48.994Z,4.57
2022-10-29T15:45:22.014Z,4.72
2022-10-29T15:48:16.069Z,5.18
2022-10-29T15:50:45.090Z,4.60
2022-10-29T15:53:15.298Z,5.63
2022-10-29T15:55:43.240Z,5.05
2022-10-29T15:58:19.638Z,5.57
2022-10-29T16:00:46.714Z,5.57
2022-10-29T16:03:22.833Z,5.60
2022-10-29T16:05:53.969Z,4.97
2022-10-29T16:08:33.093Z,4.85
2022-10-29T16:11:03.271Z,4.05
2022-10-29T16:13:31.175Z,4.43
2022-10-29T16:15:58.152Z,4.82
2022-10-29T16:18:25.121Z,4.45
2022-10-29T16:21:03.097Z,4.30
2022-10-29T16:23:36.853Z,5.85
2022-10-29T16:26:04.756Z,5.10
2022-10-29T16:28:31.854Z,4.88
2022-10-29T16:30:59.688Z,6.00
2022-10-29T16:33:27.591Z,3.88
2022-10-29T16:35:54.757Z,5.25
2022-10-29T16:38:21.709Z,4.95
2022-10-29T16:40:51.708Z,4.07
2022-10-29T16:43:18.778Z,5.72
2022-10-29T16:45:45.783Z,4.95
2022-10-29T16:48:18.976Z,5.78
2022-10-29T16:50:46.004Z,5.15
2022-10-29T16:53:13.015Z,5.93
2022-10-29T16:55:44.115Z,5.22
2022-10-29T16:58:16.216Z,4.78
2022-10-29T17:00:43.911Z,5.03
2022-10-29T17:03:12.992Z,4.38
2022-10-29T17:05:42.693Z,5.60
2022-10-29T17:09:00.748Z,5.68
2022-10-29T17:11:36.795Z,4.72
2022-10-29T17:14:06.053Z,4.55
2022-10-29T17:16:41.818Z,5.20
2022-10-29T17:19:11.138Z,4.70
2022-10-29T17:21:46.909Z,5.05
2022-10-29T17:24:16.306Z,3.97
2022-10-29T17:26:43.289Z,4.53
2022-10-29T17:29:10.401Z,5.38
2022-10-29T17:31:42.948Z,5.28
2022-10-29T17:34:10.902Z,4.20
2022-10-29T17:36:42.871Z,5.50
2022-10-29T17:39:10.464Z,4.50
2022-10-29T17:41:42.108Z,4.72
2022-10-29T17:44:15.975Z,5.55
2022-10-29T17:46:55.833Z,5.05
2022-10-29T17:49:23.774Z,4.80
2022-10-29T17:51:57.832Z,5.22
2022-10-29T17:54:45.279Z,5.32
2022-10-29T17:57:46.656Z,5.88
2022-10-29T18:00:14.184Z,5.43
2022-10-29T18:03:07.219Z,4.38
2022-10-29T18:05:37.348Z,6.63
2022-10-29T18:08:04.331Z,5.70
2022-10-29T18:10:35.033Z,5.60
2022-10-29T18:13:02.424Z,5.38
2022-10-29T18:15:54.803Z,5.00
2022-10-29T18:18:21.749Z,5.80
2022-10-29T18:20:48.754Z,5.35
2022-10-29T18:23:15.905Z,6.22
2022-10-29T18:25:43.092Z,5.70
2022-10-29T18:28:10.188Z,4.88
2022-10-29T18:30:37.859Z,5.75
2022-10-29T18:33:09.052Z,5.70
2022-10-29T18:35:49.363Z,5.53
2022-10-29T18:38:16.518Z,5.95
2022-10-29T18:40:43.940Z,6.75
2022-10-29T18:43:12.519Z,5.18
2022-10-29T18:45:43.239Z,5.60
2022-10-29T18:48:12.824Z,5.90
2022-10-29T18:50:44.054Z,5.72
2022-10-29T18:53:11.292Z,5.03
2022-10-29T18:55:42.547Z,6.13
2022-10-29T18:58:09.750Z,6.10
2022-10-29T19:00:36.740Z,5.70
2022-10-29T19:03:04.026Z,6.25
2022-10-29T19:05:37.583Z,5.30
2022-10-29T19:08:06.904Z,5.53
2022-10-29T19:10:44.611Z,5.35
2022-10-29T19:13:11.945Z,5.93
2022-10-29T19:15:42.448Z,5.78
2022-10-29T19:18:09.526Z,6.07
2022-10-29T19:20:36.879Z,4.80
2022-10-29T19:23:04.627Z,4.70
2022-10-29T19:25:42.851Z,4.90
2022-10-29T19:28:09.805Z,5.47
2022-10-29T19:30:44.798Z,5.97
2022-10-29T19:33:12.125Z,5.07
2022-10-29T19:35:48.681Z,5.60
2022-10-29T19:38:15.908Z,6.28
2022-10-29T19:40:45.143Z,5.57
2022-10-29T19:43:12.163Z,5.68
2022-10-29T19:45:57.873Z,4.55
2022-10-29T19:48:54.933Z,4.88
2022-10-29T19:51:30.273Z,4.22
2022-10-29T19:54:01.284Z,4.97
2022-10-29T19:56:54.424Z,4.53
2022-10-29T19:59:21.484Z,4.75
2022-10-29T20:01:49.751Z,5.28
2022-10-29T20:04:16.776Z,4.95
2022-10-29T20:06:45.833Z,5.95
2022-10-29T20:09:12.820Z,5.28
2022-10-29T20:11:45.504Z,4.53
2022-10-29T20:14:15.472Z,5.47
2022-10-29T20:16:43.613Z,4.38
2022-10-29T20:19:11.227Z,4.30
2022-10-29T20:21:44.274Z,9.63
2022-10-29T20:24:11.268Z,6.68
2022-10-29T20:26:56.860Z,5.25
2022-10-29T20:29:25.896Z,4.47
2022-10-29T20:34:29.379Z,3.25
2022-10-29T20:37:07.766Z,4.00
2022-10-29T20:39:46.154Z,4.10
2022-10-29T20:42:13.147Z,3.70
2022-10-29T20:44:44.967Z,3.97
2022-10-29T20:47:13.008Z,3.83
2022-10-29T20:49:48.158Z,3.90
2022-10-29T20:52:15.778Z,3.63
2022-10-29T20:54:44.316Z,3.97
2022-10-29T20:57:11.300Z,4.22
2022-10-29T20:59:38.283Z,4.03
2022-10-29T21:02:07.321Z,3.15
2022-10-29T21:04:37.559Z,3.20
2022-10-29T21:07:04.884Z,2.80
2022-10-29T21:09:36.398Z,3.50
2022-10-29T21:12:04.325Z,2.80
2022-10-29T21:14:46.628Z,3.08
2022-10-29T21:17:13.805Z,2.53
2022-10-29T21:19:45.453Z,2.70
2022-10-29T21:22:15.010Z,2.35
2022-10-29T21:24:46.803Z,2.53
2022-10-29T21:27:13.762Z,3.17
2022-10-29T21:29:48.150Z,3.97
2022-10-29T21:32:17.032Z,2.58
2022-10-29T21:34:44.584Z,2.60
2022-10-29T21:37:11.631Z,2.45
2022-10-29T21:39:50.773Z,2.90
2022-10-29T21:42:17.811Z,3.03
2022-10-29T21:44:44.720Z,2.30
2022-10-29T21:47:11.738Z,3.28
2022-10-29T21:49:38.665Z,2.72
2022-10-29T21:52:08.714Z,2.50
2022-10-29T21:54:36.788Z,2.58
2022-10-29T21:57:03.815Z,2.60
2022-10-29T21:59:39.318Z,2.60
2022-10-29T22:02:08.080Z,2.80
2022-10-29T22:04:47.561Z,2.40
2022-10-29T22:07:14.492Z,2.80
2022-10-29T22:09:46.973Z,2.67
2022-10-29T22:12:14.000Z,1.98
2022-10-29T22:14:49.875Z,2.60
2022-10-29T22:17:16.816Z,2.08
2022-10-29T22:19:45.668Z,2.60
2022-10-29T22:22:12.998Z,2.33
2022-10-29T22:24:48.859Z,2.10
2022-10-29T22:27:16.062Z,1.70
2022-10-29T22:29:54.823Z,1.73
2022-10-29T22:32:21.700Z,1.30
2022-10-29T22:34:48.538Z,1.92
2022-10-29T22:37:15.471Z,2.83
2022-10-29T22:39:48.488Z,1.83
2022-10-29T22:42:16.288Z,1.63
2022-10-29T22:44:44.172Z,2.20
2022-10-29T22:47:11.168Z,2.45
2022-10-29T22:49:38.295Z,1.92
2022-10-29T22:52:05.370Z,1.30
2022-10-29T22:54:49.506Z,2.50
2022-10-29T22:57:16.442Z,1.98
2022-10-29T22:59:48.297Z,1.90
2022-10-29T23:02:15.395Z,2.22
2022-10-29T23:04:45.388Z,2.30
2022-10-29T23:07:12.961Z,1.85
2022-10-29T23:09:40.852Z,2.28
2022-10-29T23:12:13.295Z,2.13
2022-10-29T23:14:41.575Z,2.47
2022-10-29T23:17:09.089Z,1.80
2022-10-29T23:19:37.267Z,2.75
2022-10-29T23:22:04.234Z,2.63
2022-10-29T23:24:32.616Z,2.80
2022-10-29T23:27:00.322Z,2.25
2022-10-29T23:29:27.839Z,3.17
2022-10-29T23:31:55.342Z,3.92
2022-10-29T23:34:22.267Z,2.80
2022-10-29T23:36:49.246Z,2.85
2022-10-29T23:39:16.219Z,2.17
2022-10-29T23:41:43.706Z,3.03
2022-10-29T23:44:10.612Z,3.35
2022-10-29T23:46:37.634Z,2.42
2022-10-29T23:49:04.569Z,2.30
2022-10-29T23:51:32.249Z,2.92
2022-10-29T23:54:00.299Z,3.15
2022-10-29T23:56:27.768Z,2.95
2022-10-29T23:58:57.280Z,3.10
